Time;durP1;ratioP1;P1;durP2;ratioP2;P2;SDS_P1;SDS_P2;PMS_P1;PMS_P2;Temp;Humidity;BMP_temperature;BMP_pressure;BME280_temperature;BME280_humidity;BME280_pressure;Samples;Min_cycle;Max_cycle;Signal;HPM_P1;HPM_P2
2022/02/23 00:01:16;;;;;;;2.88;1.50;;;;;;;6.06;53.81;93207.25;2052158;70;20549;-72
2022/02/23 00:03:42;;;;;;;4.38;2.03;;;;;;;6.16;53.66;93201.78;2052143;69;20138;-72
2022/02/23 00:06:07;;;;;;;3.92;1.60;;;;;;;6.16;53.55;93198.25;2052265;70;20154;-72
2022/02/23 00:08:33;;;;;;;2.83;1.50;;;;;;;6.06;54.25;93212.84;2052227;69;20122;-72
2022/02/23 00:10:59;;;;;;;4.22;2.00;;;;;;;6.07;53.06;93224.75;2051849;70;20288;-72
2022/02/23 00:13:27;;;;;;;4.90;2.30;;;;;;;6.20;52.70;93206.97;2052177;70;20331;-72
2022/02/23 00:15:54;;;;;;;3.47;2.10;;;;;;;6.07;53.55;93191.97;2062380;69;20229;-72
2022/02/23 00:18:21;;;;;;;3.28;1.52;;;;;;;6.22;52.89;93191.09;2052177;70;20146;-71
2022/02/23 00:20:47;;;;;;;5.03;1.80;;;;;;;5.57;54.79;93196.72;2065119;69;20545;-71
2022/02/23 00:23:14;;;;;;;4.22;1.95;;;;;;;5.89;53.51;93198.03;2052054;70;20150;-72
2022/02/23 00:25:39;;;;;;;3.75;1.70;;;;;;;5.98;53.79;93200.22;2051881;70;20200;-72
2022/02/23 00:28:05;;;;;;;3.75;1.70;;;;;;;6.04;54.17;93203.53;2052265;70;20182;-72
2022/02/23 00:30:31;;;;;;;5.05;1.70;;;;;;;6.13;52.40;93202.91;2065093;69;20154;-72
2022/02/23 00:32:56;;;;;;;2.97;1.70;;;;;;;6.18;51.57;93190.00;2052137;70;20154;-73
2022/02/23 00:35:22;;;;;;;3.42;1.80;;;;;;;5.68;54.74;93195.53;2052121;70;20158;-73
2022/02/23 00:37:48;;;;;;;4.68;2.22;;;;;;;5.86;54.61;93208.28;2052124;70;20157;-73
2022/02/23 00:40:14;;;;;;;3.20;1.67;;;;;;;5.81;53.24;93198.81;2052180;70;20716;-73
2022/02/23 00:42:40;;;;;;;3.33;1.65;;;;;;;6.11;52.59;93199.94;2065089;69;20146;-72
2022/02/23 00:45:06;;;;;;;2.53;1.52;;;;;;;6.08;52.41;93206.69;2052102;70;20138;-73
2022/02/23 00:47:32;;;;;;;1.90;1.35;;;;;;;6.08;53.38;93203.88;2051979;70;20146;-72
2022/02/23 00:49:57;;;;;;;3.08;1.55;;;;;;;5.95;52.92;93204.16;2052219;70;20219;-72
2022/02/23 00:52:23;;;;;;;2.97;1.52;;;;;;;6.04;52.95;93200.75;2065019;69;20154;-72
2022/02/23 00:54:49;;;;;;;3.20;1.60;;;;;;;5.94;53.62;93206.22;2051859;70;20170;-71
2022/02/23 00:57:15;;;;;;;3.45;1.85;;;;;;;5.89;53.34;93209.94;2052136;70;20185;-72
2022/02/23 00:59:42;;;;;;;3.15;1.88;;;;;;;6.15;51.97;93203.09;2052082;70;20170;-72
2022/02/23 01:02:08;;;;;;;3.78;1.70;;;;;;;5.91;54.37;93192.59;2052102;70;20203;-72
2022/02/23 01:04:33;;;;;;;3.15;1.40;;;;;;;6.03;52.37;93190.88;2052060;70;20166;-73
2022/02/23 01:06:59;;;;;;;2.58;1.30;;;;;;;6.21;52.00;93186.09;2052056;69;20521;-73
2022/02/23 01:09:25;;;;;;;5.00;2.10;;;;;;;5.73;53.80;93172.97;2064852;69;20161;-72
2022/02/23 01:11:51;;;;;;;3.60;1.77;;;;;;;5.73;54.38;93180.63;2052061;70;20157;-73
2022/02/23 01:14:16;;;;;;;4.95;1.88;;;;;;;5.94;53.18;93174.72;2064993;69;20150;-72
2022/02/23 01:16:42;;;;;;;3.25;1.70;;;;;;;5.73;53.43;93166.66;2051586;70;20181;-72
2022/02/23 01:19:08;;;;;;;3.67;1.48;;;;;;;5.79;53.25;93164.38;2052050;70;20160;-72
2022/02/23 01:21:34;;;;;;;3.35;1.40;;;;;;;5.94;53.42;93155.16;2051888;70;20170;-72
2022/02/23 01:24:00;;;;;;;3.38;1.33;;;;;;;6.06;52.69;93142.22;2052089;70;20146;-72
2022/02/23 01:26:26;;;;;;;2.42;1.40;;;;;;;6.05;53.33;93154.72;2051956;70;20142;-71
2022/02/23 01:28:52;;;;;;;1.77;1.10;;;;;;;6.02;53.03;93148.22;2051901;70;20181;-74
2022/02/23 01:31:17;;;;;;;2.75;1.40;;;;;;;5.95;52.90;93159.44;2052085;70;20149;-71
2022/02/23 01:33:43;;;;;;;1.83;1.10;;;;;;;6.10;52.13;93164.94;2052087;70;20149;-72
2022/02/23 01:36:09;;;;;;;3.28;1.02;;;;;;;6.03;53.65;93171.31;2051874;69;20224;-71
2022/02/23 01:38:35;;;;;;;1.70;1.05;;;;;;;5.84;53.48;93186.50;2052093;70;20185;-71
2022/02/23 01:41:03;;;;;;;2.75;1.45;;;;;;;5.89;53.74;93192.44;2051913;70;20169;-72
2022/02/23 01:43:29;;;;;;;5.68;1.60;;;;;;;5.96;53.68;93197.28;2051903;70;20154;-73
2022/02/23 01:45:56;;;;;;;2.42;1.48;;;;;;;5.95;54.35;93207.69;2051957;70;20150;-72
2022/02/23 01:48:22;;;;;;;2.40;1.20;;;;;;;5.96;54.01;93214.78;2051957;70;20153;-71
2022/02/23 01:50:48;;;;;;;2.45;1.42;;;;;;;5.99;53.61;93216.41;2052068;70;20149;-72
2022/02/23 01:53:16;;;;;;;2.33;1.52;;;;;;;6.12;53.29;93223.78;2065246;69;20590;-72
2022/02/23 01:55:43;;;;;;;2.40;1.10;;;;;;;6.16;52.27;93217.81;2052058;69;20150;-71
2022/02/23 01:58:15;;;;;;;2.63;1.40;;;;;;;6.14;52.21;93207.22;2052101;70;20602;-72
2022/02/23 02:00:41;;;;;;;3.45;1.20;;;;;;;5.85;54.61;93207.53;2052132;70;20161;-72
2022/02/23 02:03:07;;;;;;;1.98;1.35;;;;;;;5.90;54.03;93219.81;2051884;70;20146;-71
2022/02/23 02:05:32;;;;;;;2.08;1.40;;;;;;;6.05;53.12;93207.84;2051873;70;20262;-71
2022/02/23 02:07:58;;;;;;;4.05;1.33;;;;;;;6.05;54.38;93191.06;2051891;70;20285;-72
2022/02/23 02:10:24;;;;;;;2.58;1.50;;;;;;;5.76;55.53;93194.19;2051812;70;20231;-72
2022/02/23 02:12:49;;;;;;;4.00;1.63;;;;;;;5.92;53.93;93196.94;2051834;70;20233;-72
2022/02/23 02:15:15;;;;;;;2.25;1.23;;;;;;;5.98;54.44;93180.66;2065040;69;20174;-73
2022/02/23 02:17:41;;;;;;;2.97;1.30;;;;;;;6.01;54.86;93179.53;2051926;70;20154;-72
2022/02/23 02:20:08;;;;;;;2.40;1.13;;;;;;;6.09;54.27;93180.19;2052011;69;20611;-73
2022/02/23 02:22:34;;;;;;;2.63;1.10;;;;;;;5.81;57.53;93190.41;2064850;69;20170;-71
2022/02/23 02:25:00;;;;;;;2.58;1.40;;;;;;;5.69;56.81;93203.34;2051853;70;20151;-71
2022/02/23 02:27:26;;;;;;;2.65;1.17;;;;;;;5.73;55.58;93212.09;2051933;70;20154;-73
2022/02/23 02:29:52;;;;;;;3.65;1.63;;;;;;;5.69;55.35;93211.75;2052011;69;20225;-71
2022/02/23 02:32:18;;;;;;;2.92;1.30;;;;;;;5.86;54.46;93199.88;2051796;70;20146;-74
2022/02/23 02:34:45;;;;;;;2.03;1.30;;;;;;;5.39;57.24;93204.25;2051861;70;20255;-71
2022/02/23 02:37:12;;;;;;;2.40;1.40;;;;;;;5.70;56.28;93212.47;2052233;70;20153;-71
2022/02/23 02:39:38;;;;;;;1.92;1.10;;;;;;;5.69;56.34;93208.22;2051873;70;20127;-71
2022/02/23 02:42:04;;;;;;;2.72;1.55;;;;;;;5.61;56.26;93200.59;2052207;69;20147;-73
2022/02/23 02:44:30;;;;;;;2.65;1.40;;;;;;;5.72;56.23;93201.47;2052181;70;20226;-73
2022/02/23 02:46:56;;;;;;;4.43;1.30;;;;;;;5.68;56.43;93189.94;2052157;70;20260;-73
2022/02/23 02:49:21;;;;;;;1.83;1.20;;;;;;;5.79;55.77;93207.03;2052186;70;20158;-74
2022/02/23 02:51:48;;;;;;;2.22;1.08;;;;;;;5.65;56.11;93205.81;2052296;69;20164;-72
2022/02/23 02:54:13;;;;;;;1.83;1.00;;;;;;;5.65;56.96;93208.59;2052089;70;20270;-71
2022/02/23 02:56:40;;;;;;;1.95;0.90;;;;;;;5.86;55.66;93219.44;2052037;70;20209;-71
2022/02/23 02:59:07;;;;;;;4.00;1.10;;;;;;;5.66;57.95;93217.72;2052103;70;20165;-72
2022/02/23 03:01:34;;;;;;;1.35;0.98;;;;;;;5.85;55.15;93213.13;2052220;70;20154;-72
2022/02/23 03:04:00;;;;;;;3.72;1.20;;;;;;;5.95;55.07;93226.50;2052211;70;20208;-71
2022/02/23 03:06:26;;;;;;;1.70;0.80;;;;;;;5.95;56.09;93230.03;2052230;70;20206;-72
2022/02/23 03:08:54;;;;;;;2.88;0.80;;;;;;;5.97;56.00;93238.63;2052103;69;20154;-71
2022/02/23 03:11:20;;;;;;;2.42;0.85;;;;;;;6.01;56.45;93241.75;2052184;70;20262;-73
2022/02/23 03:13:45;;;;;;;1.75;1.20;;;;;;;5.96;56.85;93247.59;2052337;70;20239;-72
2022/02/23 03:16:12;;;;;;;3.60;0.90;;;;;;;5.88;56.07;93239.19;2052380;70;20150;-73
2022/02/23 03:18:39;;;;;;;3.55;1.15;;;;;;;6.02;55.66;93236.91;2052482;70;20634;-73
2022/02/23 03:21:06;;;;;;;1.88;1.00;;;;;;;6.06;56.35;93246.38;2052327;70;20157;-72
2022/02/23 03:23:32;;;;;;;1.52;1.00;;;;;;;6.05;56.00;93253.28;2052557;70;20203;-73
2022/02/23 03:25:58;;;;;;;2.95;0.90;;;;;;;5.98;55.98;93261.72;2052216;70;20146;-75
2022/02/23 03:28:24;;;;;;;1.45;0.90;;;;;;;5.97;55.81;93257.44;2052407;70;20158;-73
2022/02/23 03:30:50;;;;;;;3.50;1.40;;;;;;;5.99;55.32;93252.75;2052313;70;20142;-73
2022/02/23 03:33:16;;;;;;;2.25;1.08;;;;;;;5.79;57.80;93262.16;2052254;70;20150;-73
2022/02/23 03:35:44;;;;;;;2.05;1.30;;;;;;;5.94;56.63;93270.50;2052319;70;20234;-73
2022/02/23 03:38:10;;;;;;;3.30;1.25;;;;;;;6.04;56.27;93265.75;2052341;70;20234;-73
2022/02/23 03:40:37;;;;;;;3.65;1.27;;;;;;;6.07;57.24;93270.22;2052147;70;20225;-73
2022/02/23 03:43:03;;;;;;;3.13;1.00;;;;;;;6.10;56.19;93274.69;2052346;70;20161;-74
2022/02/23 03:45:30;;;;;;;1.70;1.08;;;;;;;6.04;57.22;93274.16;2065088;69;20162;-71
2022/02/23 03:47:56;;;;;;;4.43;1.00;;;;;;;5.84;56.75;93286.34;2065442;69;20181;-71
2022/02/23 03:50:21;;;;;;;1.75;1.00;;;;;;;5.98;56.83;93289.66;2052284;70;20249;-72
2022/02/23 03:52:47;;;;;;;2.35;1.00;;;;;;;5.96;57.28;93303.47;2052303;70;20149;-71
2022/02/23 03:55:13;;;;;;;3.33;1.30;;;;;;;6.07;56.49;93294.66;2052329;70;20153;-71
2022/02/23 03:57:39;;;;;;;3.13;0.80;;;;;;;6.08;56.46;93296.88;2052324;70;20153;-71
2022/02/23 04:00:08;;;;;;;3.42;1.67;;;;;;;5.98;56.21;93298.06;2052336;70;20257;-71
2022/02/23 04:02:34;;;;;;;3.63;2.80;;;;;;;6.02;55.91;93307.53;2052245;70;20267;-73
2022/02/23 04:05:00;;;;;;;3.95;2.05;;;;;;;5.66;58.40;93313.44;2052244;70;20628;-72
2022/02/23 04:07:27;;;;;;;5.13;1.52;;;;;;;5.78;58.00;93317.31;2052244;70;20602;-73
2022/02/23 04:09:53;;;;;;;3.90;1.70;;;;;;;5.97;57.61;93332.91;2052082;70;20530;-75
2022/02/23 04:12:19;;;;;;;6.20;1.40;;;;;;;5.69;57.98;93329.06;2052310;69;20214;-72
2022/02/23 04:14:46;;;;;;;1.40;1.10;;;;;;;5.52;59.58;93345.69;2052327;70;20194;-73
2022/02/23 04:17:11;;;;;;;2.15;1.58;;;;;;;5.89;58.27;93344.06;2052252;70;20203;-72
2022/02/23 04:19:38;;;;;;;3.00;1.10;;;;;;;5.85;58.54;93341.66;2052209;70;20146;-72
2022/02/23 04:22:05;;;;;;;2.28;1.00;;;;;;;5.83;58.52;93368.69;2052278;70;20228;-71
2022/02/23 04:24:31;;;;;;;2.05;0.90;;;;;;;5.91;57.96;93369.41;2052134;70;20609;-71
2022/02/23 04:26:56;;;;;;;2.30;1.17;;;;;;;6.02;56.66;93373.88;2052241;70;20150;-70
2022/02/23 04:29:22;;;;;;;2.28;1.58;;;;;;;5.75;57.97;93376.34;2052297;70;20150;-71
2022/02/23 04:31:48;;;;;;;4.75;1.90;;;;;;;5.83;58.19;93380.63;2062415;69;20147;-72
2022/02/23 04:34:14;;;;;;;4.53;1.67;;;;;;;5.83;59.13;93379.88;2052200;70;20170;-72
2022/02/23 04:36:39;;;;;;;2.80;1.60;;;;;;;5.95;58.45;93366.25;2052313;70;20593;-71
2022/02/23 04:39:05;;;;;;;4.45;1.40;;;;;;;5.97;57.04;93344.09;2052236;69;20203;-71
2022/02/23 04:41:31;;;;;;;3.47;1.48;;;;;;;5.71;59.26;93348.06;2052094;70;20663;-71
2022/02/23 04:43:57;;;;;;;1.70;1.10;;;;;;;5.70;59.81;93333.34;2052206;70;20612;-71
2022/02/23 04:46:23;;;;;;;1.00;0.80;;;;;;;5.88;58.05;93331.41;2052206;70;20147;-72
2022/02/23 04:48:50;;;;;;;1.02;0.70;;;;;;;5.90;57.98;93328.78;2052187;69;20138;-71
2022/02/23 04:51:17;;;;;;;0.93;0.55;;;;;;;5.81;59.72;93334.97;2052198;70;20134;-71
2022/02/23 04:53:43;;;;;;;10.00;5.00;;;;;;;5.39;60.85;93338.28;2052166;70;20232;-71
2022/02/23 04:56:09;;;;;;;7.72;3.95;;;;;;;5.47;61.10;93344.59;2052120;70;20158;-71
2022/02/23 04:58:36;;;;;;;5.32;2.92;;;;;;;5.57;59.98;93348.28;2065131;69;20679;-71
2022/02/23 05:01:03;;;;;;;7.25;2.83;;;;;;;5.67;59.75;93359.59;2052147;70;20166;-71
2022/02/23 05:03:28;;;;;;;6.25;2.65;;;;;;;5.67;59.36;93368.00;2052018;70;20180;-73
2022/02/23 05:05:54;;;;;;;6.10;2.60;;;;;;;5.74;58.06;93360.91;2052042;69;20483;-76
2022/02/23 05:08:20;;;;;;;8.88;2.70;;;;;;;5.62;59.35;93377.31;2052036;69;20291;-77
2022/02/23 05:10:47;;;;;;;4.78;2.40;;;;;;;5.74;58.14;93389.59;2051923;70;20568;-76
2022/02/23 05:13:17;;;;;;;6.47;3.25;;;;;;;5.41;60.45;93377.56;2052116;70;20503;-72
2022/02/23 05:15:43;;;;;;;22.63;9.77;;;;;;;4.92;63.14;93397.50;2052167;70;20616;-78
2022/02/23 05:18:09;;;;;;;22.55;10.02;;;;;;;5.37;61.58;93407.16;2052204;70;20150;-74
2022/02/23 05:20:35;;;;;;;25.10;9.90;;;;;;;5.51;60.49;93409.19;2052202;70;20239;-71
2022/02/23 05:23:01;;;;;;;20.33;8.52;;;;;;;5.54;60.11;93416.47;2052226;70;20230;-70
2022/02/23 05:25:27;;;;;;;17.95;7.45;;;;;;;5.69;59.79;93415.69;2052022;70;20145;-71
2022/02/23 05:27:53;;;;;;;14.90;5.57;;;;;;;5.71;59.54;93407.47;2065063;69;20181;-71
2022/02/23 05:30:18;;;;;;;13.52;5.55;;;;;;;5.34;62.16;93393.00;2052254;70;20146;-73
2022/02/23 05:32:44;;;;;;;11.85;5.43;;;;;;;5.61;60.50;93407.31;2052132;70;20158;-71
2022/02/23 05:35:11;;;;;;;11.50;4.55;;;;;;;5.74;59.94;93405.59;2052069;70;20158;-73
2022/02/23 05:37:37;;;;;;;10.32;4.35;;;;;;;5.60;60.43;93403.03;2052091;69;20149;-75
2022/02/23 05:40:04;;;;;;;10.35;4.20;;;;;;;5.83;58.79;93397.38;2052043;70;20146;-74
2022/02/23 05:42:30;;;;;;;6.90;2.50;;;;;;;5.85;59.02;93391.22;2052101;70;20138;-76
2022/02/23 05:44:56;;;;;;;4.38;1.85;;;;;;;5.76;60.92;93394.59;2052081;70;20139;-74
2022/02/23 05:47:22;;;;;;;1.30;0.68;;;;;;;5.84;60.95;93392.53;2064992;69;20146;-74
2022/02/23 05:49:48;;;;;;;7.47;2.67;;;;;;;5.27;62.89;93404.19;2052077;70;20263;-73
2022/02/23 05:52:14;;;;;;;9.52;3.40;;;;;;;5.41;61.54;93413.88;2052177;70;20158;-73
2022/02/23 05:54:41;;;;;;;7.47;3.50;;;;;;;5.37;62.01;93421.88;2051876;70;20153;-72
2022/02/23 05:57:07;;;;;;;4.22;2.30;;;;;;;5.39;62.37;93429.69;2065158;69;20606;-71
2022/02/23 05:59:33;;;;;;;6.95;2.90;;;;;;;5.71;60.73;93435.41;2052261;70;20178;-70
2022/02/23 06:01:58;;;;;;;4.95;2.90;;;;;;;5.86;59.63;93440.97;2052015;70;20273;-71
2022/02/23 06:04:24;;;;;;;6.45;2.47;;;;;;;5.88;60.77;93454.38;2052118;70;20223;-73
2022/02/23 06:06:49;;;;;;;4.40;2.50;;;;;;;5.98;60.13;93457.38;2051980;70;20172;-70
2022/02/23 06:09:16;;;;;;;4.85;2.30;;;;;;;5.85;59.56;93458.28;2052206;70;20237;-71
2022/02/23 06:11:43;;;;;;;3.72;2.15;;;;;;;5.79;61.47;93463.34;2052402;70;20157;-73
2022/02/23 06:14:10;;;;;;;4.18;2.38;;;;;;;5.84;61.25;93463.13;2052480;70;20639;-72
2022/02/23 06:16:35;;;;;;;5.75;2.60;;;;;;;6.00;60.51;93474.31;2052620;70;20155;-71
2022/02/23 06:19:01;;;;;;;4.45;2.30;;;;;;;5.99;60.20;93478.41;2052575;69;20142;-72
2022/02/23 06:21:27;;;;;;;6.30;2.17;;;;;;;5.90;59.19;93476.91;2052453;70;20315;-72
2022/02/23 06:23:53;;;;;;;2.63;1.38;;;;;;;5.99;60.14;93470.75;2052497;70;20141;-72
2022/02/23 06:26:19;;;;;;;3.88;1.80;;;;;;;6.07;59.46;93479.13;2052373;70;20174;-72
2022/02/23 06:28:45;;;;;;;4.97;1.50;;;;;;;6.17;59.52;93474.44;2052536;70;20280;-72
2022/02/23 06:31:11;;;;;;;2.35;1.30;;;;;;;6.21;60.46;93476.88;2052624;70;20146;-77
2022/02/23 06:33:43;;;;;;;1.75;1.05;;;;;;;6.22;61.18;93479.09;2052612;70;20166;-73
2022/02/23 06:36:09;;;;;;;1.65;1.00;;;;;;;6.26;60.93;93482.25;2052513;69;20149;-71
2022/02/23 06:38:36;;;;;;;1.45;1.35;;;;;;;6.26;60.17;93485.03;2052448;70;20223;-71
2022/02/23 06:41:06;;;;;;;1.77;0.90;;;;;;;6.39;60.52;93470.09;2052359;70;20160;-71
2022/02/23 06:43:32;;;;;;;2.08;0.95;;;;;;;6.33;59.84;93483.53;2052469;70;20557;-74
2022/02/23 06:46:01;;;;;;;2.28;1.27;;;;;;;6.15;60.25;93487.53;2065556;69;20146;-75
2022/02/23 06:48:28;;;;;;;8.98;4.43;;;;;;;6.18;59.98;93486.38;2052444;70;20694;-74
2022/02/23 06:50:54;;;;;;;23.85;10.85;;;;;;;6.02;59.69;93496.84;2052605;70;20143;-73
2022/02/23 06:53:20;;;;;;;11.05;5.72;;;;;;;6.16;60.44;93491.78;2052435;70;20253;-74
2022/02/23 06:55:46;;;;;;;10.85;5.82;;;;;;;6.14;60.84;93486.78;2052344;70;20142;-72
2022/02/23 06:58:12;;;;;;;6.65;4.28;;;;;;;5.98;61.69;93496.50;2052459;70;20286;-72
2022/02/23 07:00:38;;;;;;;4.47;2.50;;;;;;;6.08;61.38;93491.81;2065411;69;20170;-73
2022/02/23 07:03:04;;;;;;;6.38;3.40;;;;;;;6.37;59.83;93497.88;2052400;70;20241;-72
2022/02/23 07:05:30;;;;;;;7.20;3.20;;;;;;;6.46;58.80;93500.09;2052589;70;20596;-75
2022/02/23 07:07:56;;;;;;;15.70;6.45;;;;;;;6.42;61.28;93499.75;2052431;70;20176;-71
2022/02/23 07:10:24;;;;;;;10.85;5.20;;;;;;;6.53;60.82;93504.91;2052273;69;20241;-71
2022/02/23 07:12:50;;;;;;;6.95;3.33;;;;;;;6.66;60.74;93509.53;2052428;70;20154;-71
2022/02/23 07:15:17;;;;;;;5.22;2.85;;;;;;;6.63;61.28;93516.97;2052470;70;20146;-71
2022/02/23 07:17:43;;;;;;;13.45;5.53;;;;;;;6.79;59.77;93519.72;2052380;70;20150;-71
2022/02/23 07:20:09;;;;;;;12.00;5.80;;;;;;;6.91;58.91;93520.78;2052403;70;20220;-72
2022/02/23 07:22:36;;;;;;;14.13;6.43;;;;;;;7.05;59.69;93526.88;2052324;70;20252;-72
2022/02/23 07:25:03;;;;;;;16.30;7.65;;;;;;;7.18;58.13;93543.41;2065234;69;20225;-72
2022/02/23 07:27:29;;;;;;;17.75;7.65;;;;;;;7.28;57.96;93535.88;2052465;70;20602;-71
2022/02/23 07:29:54;;;;;;;13.38;6.70;;;;;;;6.60;61.08;93537.72;2065315;69;20166;-73
2022/02/23 07:32:22;;;;;;;12.05;5.63;;;;;;;6.95;58.69;93537.94;2052409;70;20186;-73
2022/02/23 07:34:50;;;;;;;14.13;5.47;;;;;;;6.94;60.24;93536.44;2052297;70;20237;-72
2022/02/23 07:37:16;;;;;;;10.65;4.38;;;;;;;6.90;60.69;93543.75;2052354;69;20162;-73
2022/02/23 07:39:42;;;;;;;5.53;2.97;;;;;;;7.13;59.38;93544.38;2065157;69;20150;-73
2022/02/23 07:42:08;;;;;;;4.75;2.90;;;;;;;7.26;59.53;93548.97;2065266;69;20154;-73
2022/02/23 07:44:34;;;;;;;7.25;3.47;;;;;;;7.29;59.35;93543.00;2052573;70;20158;-73
2022/02/23 07:46:59;;;;;;;6.15;3.10;;;;;;;7.41;58.23;93546.06;2052483;70;20161;-72
2022/02/23 07:49:26;;;;;;;7.97;3.92;;;;;;;7.37;56.23;93552.06;2052444;70;20169;-73
2022/02/23 07:51:52;;;;;;;7.78;3.70;;;;;;;7.40;58.19;93558.59;2052293;70;20287;-71
2022/02/23 07:54:17;;;;;;;5.35;3.22;;;;;;;7.45;57.71;93565.28;2052388;70;20237;-72
2022/02/23 07:56:43;;;;;;;10.68;5.20;;;;;;;7.37;55.88;93566.06;2052205;70;20154;-72
2022/02/23 07:59:09;;;;;;;9.68;5.50;;;;;;;7.42;56.15;93569.22;2052317;70;20155;-72
2022/02/23 08:01:37;;;;;;;5.57;3.33;;;;;;;7.31;58.05;93576.75;2052214;70;20169;-71
2022/02/23 08:04:04;;;;;;;5.65;3.13;;;;;;;7.10;60.99;93585.47;2052309;70;20155;-72
2022/02/23 08:06:31;;;;;;;6.13;3.60;;;;;;;7.47;58.16;93580.22;2052423;70;20245;-74
2022/02/23 08:08:57;;;;;;;6.85;3.28;;;;;;;7.57;58.82;93578.28;2052199;69;20207;-72
2022/02/23 08:11:24;;;;;;;4.38;2.90;;;;;;;7.72;58.87;93562.69;2052162;70;20166;-72
2022/02/23 08:13:56;;;;;;;5.63;3.45;;;;;;;7.72;57.20;93565.47;2052218;70;20134;-73
2022/02/23 08:21:54;;;;;;;12.80;7.35;;;;;;;7.64;58.65;93571.88;2052479;70;20514;-72
2022/02/23 08:24:21;;;;;;;14.73;7.05;;;;;;;7.51;59.35;93569.34;2052229;70;20146;-72
2022/02/23 08:26:47;;;;;;;13.23;7.43;;;;;;;7.49;59.79;93565.63;2052154;70;20149;-72
2022/02/23 08:29:12;;;;;;;11.65;6.75;;;;;;;7.48;59.08;93564.16;2052348;70;20506;-72
2022/02/23 08:31:38;;;;;;;13.38;6.50;;;;;;;7.57;59.25;93560.75;2052079;70;20537;-72
2022/02/23 08:34:04;;;;;;;11.93;6.15;;;;;;;7.73;58.05;93555.75;2052161;70;20194;-72
2022/02/23 08:36:29;;;;;;;12.90;5.93;;;;;;;8.07;60.28;93558.66;2052316;70;20514;-72
2022/02/23 08:38:55;;;;;;;11.63;5.80;;;;;;;8.42;61.62;93572.00;2065145;69;20262;-73
2022/02/23 08:41:23;;;;;;;11.10;6.18;;;;;;;8.83;60.77;93564.84;2065083;69;20138;-72
2022/02/23 08:43:49;;;;;;;10.80;6.28;;;;;;;9.16;58.29;93571.75;2052203;70;20142;-73
2022/02/23 08:46:14;;;;;;;7.25;3.92;;;;;;;9.05;58.75;93571.50;2052418;70;20231;-73
2022/02/23 08:48:40;;;;;;;9.98;3.90;;;;;;;9.87;59.25;93578.63;2052220;69;20127;-75
2022/02/23 08:51:05;;;;;;;6.93;4.00;;;;;;;10.42;55.98;93589.22;2052200;70;20234;-73
2022/02/23 08:53:31;;;;;;;7.00;3.03;;;;;;;11.01;55.28;93592.09;2052398;70;20556;-72
2022/02/23 08:55:56;;;;;;;7.35;2.85;;;;;;;11.40;52.85;93590.72;2052095;70;20170;-73
2022/02/23 08:58:22;;;;;;;5.63;3.20;;;;;;;11.39;52.99;93597.72;2052341;70;20150;-73
2022/02/23 09:00:48;;;;;;;5.40;2.75;;;;;;;12.19;53.88;93601.25;2052369;70;20142;-73
2022/02/23 09:03:14;;;;;;;3.00;1.88;;;;;;;12.39;50.39;93607.53;2052290;70;20154;-73
2022/02/23 09:05:40;;;;;;;3.20;1.98;;;;;;;12.67;48.75;93611.56;2052289;69;20135;-73
2022/02/23 09:08:08;;;;;;;1.88;1.50;;;;;;;12.95;47.35;93612.72;2052271;70;20149;-73
2022/02/23 09:10:33;;;;;;;3.65;1.50;;;;;;;12.54;48.16;93608.50;2051924;70;20158;-73
2022/02/23 09:12:59;;;;;;;4.00;1.63;;;;;;;12.65;46.53;93599.38;2065158;69;20164;-74
2022/02/23 09:15:25;;;;;;;2.63;1.30;;;;;;;12.79;46.74;93602.44;2052123;70;20642;-74
2022/02/23 09:17:51;;;;;;;5.43;1.52;;;;;;;13.16;46.67;93594.28;2052160;70;20292;-73
2022/02/23 09:20:16;;;;;;;5.13;1.10;;;;;;;13.90;46.79;93596.88;2052302;69;20253;-73
2022/02/23 09:22:42;;;;;;;2.85;1.20;;;;;;;12.69;47.13;93596.81;2065179;69;20142;-75
2022/02/23 09:25:08;;;;;;;3.08;0.90;;;;;;;13.28;46.55;93600.72;2052100;70;20150;-74
2022/02/23 09:27:34;;;;;;;2.42;1.48;;;;;;;13.70;45.78;93593.53;2052139;70;20173;-74
2022/02/23 09:30:00;;;;;;;1.58;0.90;;;;;;;12.94;45.35;93594.28;2052165;70;20182;-71
2022/02/23 09:32:26;;;;;;;2.65;1.23;;;;;;;13.13;45.04;93596.22;2052121;70;20686;-73
2022/02/23 09:34:51;;;;;;;3.53;1.63;;;;;;;13.39;45.90;93599.31;2052081;70;20142;-73
2022/02/23 09:37:18;;;;;;;11.25;5.78;;;;;;;13.14;46.21;93592.03;2052102;70;20538;-73
2022/02/23 09:39:44;;;;;;;6.60;2.72;;;;;;;13.35;45.29;93594.13;2052101;70;20154;-72
2022/02/23 09:42:13;;;;;;;2.70;0.60;;;;;;;13.78;43.68;93604.59;2052092;70;20681;-73
2022/02/23 09:44:42;;;;;;;0.65;0.40;;;;;;;13.56;44.47;93595.44;2051976;70;20647;-73
2022/02/23 09:47:09;;;;;;;1.60;0.73;;;;;;;14.43;44.27;93602.97;2052103;70;20142;-72
2022/02/23 09:49:36;;;;;;;1.15;0.70;;;;;;;14.53;43.26;93597.22;2052084;70;20308;-72
2022/02/23 09:52:04;;;;;;;3.17;1.02;;;;;;;14.80;43.28;93600.28;2052059;70;20143;-73
2022/02/23 09:54:30;;;;;;;2.53;1.13;;;;;;;14.15;43.62;93599.13;2051918;70;20218;-74
2022/02/23 09:56:55;;;;;;;2.72;1.30;;;;;;;14.89;43.66;93598.66;2052053;70;20177;-72
2022/02/23 09:59:22;;;;;;;1.40;1.10;;;;;;;14.65;43.03;93595.84;2052171;70;20215;-74
2022/02/23 10:01:49;;;;;;;1.27;0.80;;;;;;;13.72;44.51;93597.22;2065119;69;20146;-73
2022/02/23 10:04:17;;;;;;;3.42;1.05;;;;;;;15.29;43.02;93596.72;2052103;69;20261;-75
2022/02/23 10:06:43;;;;;;;1.92;1.00;;;;;;;16.28;41.51;93590.19;2052068;69;20145;-73
2022/02/23 10:09:11;;;;;;;2.63;1.00;;;;;;;16.11;41.55;93593.50;2051963;70;20154;-72
2022/02/23 10:11:39;;;;;;;0.88;0.77;;;;;;;17.00;40.64;93595.41;2052099;70;20700;-72
2022/02/23 10:14:06;;;;;;;3.97;0.93;;;;;;;15.56;41.04;93596.13;2052026;70;20150;-73
2022/02/23 10:16:38;;;;;;;2.63;1.35;;;;;;;15.86;40.29;93588.59;2052075;70;20154;-72
2022/02/23 10:19:12;;;;;;;4.10;1.30;;;;;;;14.31;42.31;93596.56;2052173;70;20173;-73
2022/02/23 10:21:59;;;;;;;4.53;1.50;;;;;;;15.28;41.92;93595.25;2052016;69;20177;-72
2022/02/23 10:24:33;;;;;;;2.08;1.50;;;;;;;14.46;42.28;93593.25;2064863;69;20700;-73
2022/02/23 10:27:13;;;;;;;7.72;3.50;;;;;;;14.22;43.58;93590.41;2052017;70;20146;-73
2022/02/23 10:29:55;;;;;;;2.45;1.30;;;;;;;14.92;42.19;93581.13;2052001;70;20157;-72
2022/02/23 10:32:24;;;;;;;2.95;1.38;;;;;;;15.98;40.46;93583.56;2052033;69;20582;-72
2022/02/23 10:34:53;;;;;;;4.10;1.27;;;;;;;15.49;40.88;93578.75;2051938;70;20157;-73
2022/02/23 10:37:21;;;;;;;2.72;2.00;;;;;;;16.11;40.72;93580.03;2051928;70;20150;-72
2022/02/23 10:39:49;;;;;;;4.60;1.90;;;;;;;16.75;39.55;93584.16;2051706;70;20220;-72
2022/02/23 10:42:18;;;;;;;4.63;2.50;;;;;;;17.98;37.60;93579.56;2051866;70;20157;-72
2022/02/23 10:44:52;;;;;;;2.05;1.27;;;;;;;17.06;37.37;93568.66;2064932;69;20673;-73
2022/02/23 10:47:33;;;;;;;2.90;1.15;;;;;;;17.14;37.92;93575.50;2064862;69;20624;-73
2022/02/23 10:50:10;;;;;;;2.55;1.40;;;;;;;18.46;36.65;93583.19;2051806;70;20174;-72
2022/02/23 10:52:38;;;;;;;1.58;1.10;;;;;;;19.94;34.86;93582.44;2051898;70;20166;-73
2022/02/23 10:55:19;;;;;;;4.28;1.13;;;;;;;19.34;34.27;93582.09;2051920;70;20158;-73
2022/02/23 10:57:52;;;;;;;1.75;1.10;;;;;;;19.44;33.07;93576.09;2052393;70;20158;-72
2022/02/23 11:00:21;;;;;;;2.28;1.20;;;;;;;18.63;34.23;93578.97;2052440;70;20161;-72
2022/02/23 11:02:48;;;;;;;2.90;1.30;;;;;;;18.77;34.41;93573.94;2052460;70;20154;-76
2022/02/23 11:05:14;;;;;;;2.45;1.10;;;;;;;20.86;33.09;93574.50;2065417;69;20249;-77
2022/02/23 11:07:43;;;;;;;2.75;1.27;;;;;;;21.44;31.56;93578.75;2051800;70;20162;-72
2022/02/23 11:10:14;;;;;;;4.63;1.20;;;;;;;21.79;31.08;93582.75;2051413;70;20169;-73
2022/02/23 11:12:46;;;;;;;3.88;1.50;;;;;;;22.65;30.21;93571.84;2052286;70;20162;-72
2022/02/23 11:15:16;;;;;;;2.40;1.10;;;;;;;22.87;29.18;93576.78;2065196;69;20138;-71
2022/02/23 11:17:45;;;;;;;3.30;1.60;;;;;;;22.99;28.99;93586.50;2052308;70;20170;-72
2022/02/23 11:20:16;;;;;;;2.88;1.40;;;;;;;25.32;26.95;93586.41;2052251;70;20708;-70
2022/02/23 11:22:43;;;;;;;3.17;2.65;;;;;;;26.59;25.32;93581.41;2065176;69;20162;-72
2022/02/23 11:25:09;;;;;;;3.75;1.67;;;;;;;27.04;24.33;93589.97;2052177;70;20264;-75
2022/02/23 11:27:36;;;;;;;2.50;1.17;;;;;;;28.27;23.56;93583.38;2052433;70;20206;-71
2022/02/23 11:30:07;;;;;;;3.95;1.23;;;;;;;29.06;22.46;93577.44;2052306;70;20142;-70
2022/02/23 11:32:40;;;;;;;3.60;1.50;;;;;;;29.75;22.22;93582.81;2052268;70;20591;-72
2022/02/23 11:35:11;;;;;;;1.25;1.00;;;;;;;26.51;24.39;93577.69;2052245;70;20603;-71
2022/02/23 11:37:38;;;;;;;2.80;1.30;;;;;;;26.04;25.16;93569.00;2052349;70;20182;-70
2022/02/23 11:40:06;;;;;;;2.42;1.20;;;;;;;23.96;25.80;93558.16;2052219;70;20154;-70
2022/02/23 11:42:36;;;;;;;1.40;1.10;;;;;;;27.52;24.32;93558.06;2052114;70;20662;-70